createdAt,value
2018-01-12T00:00:33.123Z,6.5
2018-01-12T00:01:33.683Z,6.5
2018-01-12T00:02:32.642Z,6.5
2018-01-12T00:03:33.480Z,6.5
2018-01-12T00:04:32.979Z,6.44
2018-01-12T00:05:32.293Z,6.5
2018-01-12T00:06:32.607Z,6.44
2018-01-12T00:07:32.123Z,6.5
2018-01-12T00:08:32.426Z,6.44
2018-01-12T00:09:32.853Z,6.5
2018-01-12T00:10:32.371Z,6.44
2018-01-12T00:11:32.960Z,6.5
2018-01-12T00:12:32.362Z,6.44
2018-01-12T00:13:32.901Z,6.44
2018-01-12T00:14:33.408Z,6.44
2018-01-12T00:15:32.773Z,6.44
2018-01-12T00:16:33.198Z,6.37
2018-01-12T00:17:32.407Z,6.37
2018-01-12T00:18:32.733Z,6.44
2018-01-12T00:19:32.973Z,6.37
2018-01-12T00:20:32.458Z,6.44
2018-01-12T00:21:32.765Z,6.44
2018-01-12T00:22:32.991Z,6.44
2018-01-12T00:23:32.667Z,6.44
2018-01-12T00:24:33.377Z,6.37
2018-01-12T00:25:32.643Z,6.44
2018-01-12T00:26:33.084Z,6.44
2018-01-12T00:27:32.274Z,6.44
2018-01-12T00:28:32.596Z,6.44
2018-01-12T00:29:32.977Z,6.44
2018-01-12T00:30:32.614Z,6.44
2018-01-12T00:31:32.940Z,6.37
2018-01-12T00:32:33.113Z,6.44
2018-01-12T00:33:32.507Z,6.37
2018-01-12T00:34:33.186Z,6.44
2018-01-12T00:35:32.720Z,6.37
2018-01-12T00:36:32.961Z,6.37
2018-01-12T00:37:32.347Z,6.37
2018-01-12T00:38:33.348Z,6.37
2018-01-12T00:39:32.716Z,6.37
2018-01-12T00:40:33.034Z,6.37
2018-01-12T00:41:32.393Z,6.37
2018-01-12T00:42:32.692Z,6.37
2018-01-12T00:43:32.870Z,6.37
2018-01-12T00:44:32.247Z,6.31
2018-01-12T00:45:32.395Z,6.37
2018-01-12T00:46:32.812Z,6.31
2018-01-12T00:47:32.244Z,6.31
2018-01-12T00:48:32.407Z,6.31
2018-01-12T00:49:32.630Z,6.31
2018-01-12T00:50:32.981Z,6.31
2018-01-12T00:51:32.233Z,6.31
2018-01-12T00:52:32.521Z,6.25
2018-01-12T00:53:32.823Z,6.31
2018-01-12T00:54:32.190Z,6.25
2018-01-12T00:55:32.584Z,6.31
2018-01-12T00:56:33.045Z,6.31
2018-01-12T00:57:32.491Z,6.31
2018-01-12T00:58:32.850Z,6.31
2018-01-12T00:59:32.288Z,6.31
2018-01-12T01:00:32.605Z,6.31
2018-01-12T01:01:33.007Z,6.25
2018-01-12T01:02:32.410Z,6.25
2018-01-12T01:03:32.735Z,6.31
2018-01-12T01:04:33.029Z,6.25
2018-01-12T01:05:32.535Z,6.31
2018-01-12T01:06:32.858Z,6.25
2018-01-12T01:07:32.240Z,6.25
2018-01-12T01:08:32.429Z,6.25
2018-01-12T01:09:32.682Z,6.25
2018-01-12T01:10:32.329Z,6.19
2018-01-12T01:11:33.601Z,6.19
2018-01-12T01:12:32.071Z,6.19
2018-01-12T01:13:32.614Z,6.19
2018-01-12T01:14:31.994Z,6.19
2018-01-12T01:15:32.339Z,6.19
2018-01-12T01:16:31.967Z,6.19
2018-01-12T01:17:32.129Z,6.19
2018-01-12T01:18:32.345Z,6.12
2018-01-12T01:19:33.325Z,6.12
2018-01-12T01:20:32.705Z,6.12
2018-01-12T01:21:31.872Z,6.19
2018-01-12T01:22:32.214Z,6.12
2018-01-12T01:23:32.436Z,6.19
2018-01-12T01:24:31.760Z,6.19
2018-01-12T01:25:32.071Z,6.19
2018-01-12T01:26:32.431Z,6.19
2018-01-12T01:27:32.090Z,6.25
2018-01-12T01:28:32.361Z,6.19
2018-01-12T01:29:32.682Z,6.19
2018-01-12T01:30:31.992Z,6.12
2018-01-12T01:31:32.268Z,6.12
2018-01-12T01:32:32.798Z,6.19
2018-01-12T01:33:32.107Z,6.12
2018-01-12T01:34:32.624Z,6.12
2018-01-12T01:35:31.847Z,6.06
2018-01-12T01:36:32.765Z,6.12
2018-01-12T01:37:32.180Z,6.06
2018-01-12T01:38:31.786Z,6.06
2018-01-12T01:39:32.096Z,6
2018-01-12T01:40:32.445Z,6.06
2018-01-12T01:41:31.846Z,6.06
2018-01-12T01:42:32.139Z,6.06
2018-01-12T01:43:32.331Z,6.06
2018-01-12T01:44:32.627Z,6.06
2018-01-12T01:45:32.745Z,6.06
2018-01-12T01:46:32.979Z,6
2018-01-12T01:47:32.371Z,6.06
2018-01-12T01:48:32.832Z,6.06
2018-01-12T01:49:32.532Z,6.06
2018-01-12T01:50:32.924Z,6
2018-01-12T01:51:32.258Z,5.94
2018-01-12T01:52:32.580Z,6
2018-01-12T01:53:32.950Z,5.94
2018-01-12T01:55:33.290Z,6
2018-01-12T01:56:32.467Z,5.94
2018-01-12T01:57:32.964Z,5.87
2018-01-12T01:58:32.323Z,5.87
2018-01-12T01:59:32.643Z,5.87
2018-01-12T02:00:33.151Z,5.87
2018-01-12T02:01:32.295Z,5.87
2018-01-12T02:02:32.699Z,5.87
2018-01-12T02:03:33.170Z,5.87
2018-01-12T02:04:32.652Z,5.87
2018-01-12T02:05:32.865Z,5.87
2018-01-12T02:06:33.843Z,5.87
2018-01-12T02:07:33.038Z,5.81
2018-01-12T02:08:32.308Z,5.87
2018-01-12T02:09:32.816Z,5.81
2018-01-12T02:10:33.118Z,5.81
2018-01-12T02:11:32.680Z,5.81
2018-01-12T02:12:32.921Z,5.81
2018-01-12T02:13:32.112Z,5.81
2018-01-12T02:14:32.620Z,5.81
2018-01-12T02:15:32.912Z,5.81
2018-01-12T02:16:32.238Z,5.81
2018-01-12T02:17:32.433Z,5.75
2018-01-12T02:18:32.603Z,5.75
2018-01-12T02:19:33.046Z,5.75
2018-01-12T02:20:32.516Z,5.69
2018-01-12T02:21:33.022Z,5.69
2018-01-12T02:22:32.657Z,5.75
2018-01-12T02:23:32.960Z,5.75
2018-01-12T02:24:32.419Z,5.69
2018-01-12T02:25:32.933Z,5.75
2018-01-12T02:26:32.445Z,5.75
2018-01-12T02:27:32.920Z,5.75
2018-01-12T02:28:32.614Z,5.75
2018-01-12T02:29:33.009Z,5.75
2018-01-12T02:30:32.468Z,5.75
2018-01-12T02:31:32.447Z,5.75
2018-01-12T02:32:32.930Z,5.75
2018-01-12T02:33:32.545Z,5.75
2018-01-12T02:34:33.192Z,5.75
2018-01-12T02:35:32.675Z,5.75
2018-01-12T02:36:33.163Z,5.69
2018-01-12T02:37:32.481Z,5.75
2018-01-12T02:38:32.976Z,5.69
2018-01-12T02:39:32.513Z,5.69
2018-01-12T02:40:32.819Z,5.75
2018-01-12T02:41:32.398Z,5.75
2018-01-12T02:42:32.901Z,5.75
2018-01-12T02:43:32.233Z,5.75
2018-01-12T02:44:32.824Z,5.75
2018-01-12T02:45:33.301Z,5.75
2018-01-12T02:46:32.841Z,5.69
2018-01-12T02:47:33.398Z,5.69
2018-01-12T02:48:32.906Z,5.69
2018-01-12T02:49:33.429Z,5.75
2018-01-12T02:50:32.573Z,5.69
2018-01-12T02:51:32.914Z,5.75
2018-01-12T02:52:32.429Z,5.69
2018-01-12T02:53:32.706Z,5.69
2018-01-12T02:54:33.186Z,5.75
2018-01-12T02:55:32.854Z,5.69
2018-01-12T02:56:33.012Z,5.69
2018-01-12T02:57:32.323Z,5.69
2018-01-12T02:58:32.777Z,5.69
2018-01-12T02:59:33.180Z,5.69
2018-01-12T03:00:32.659Z,5.69
2018-01-12T03:01:33.399Z,5.69
2018-01-12T03:02:32.830Z,5.69
2018-01-12T03:03:33.095Z,5.69
2018-01-12T03:04:32.566Z,5.69
2018-01-12T03:05:33.116Z,5.75
2018-01-12T03:06:32.926Z,5.69
2018-01-12T03:07:32.678Z,5.75
2018-01-12T03:08:33.119Z,5.69
2018-01-12T03:09:32.518Z,5.69
2018-01-12T03:10:32.740Z,5.69
2018-01-12T03:11:33.116Z,5.62
2018-01-12T03:12:32.646Z,5.62
2018-01-12T03:13:32.983Z,5.62
2018-01-12T03:14:32.243Z,5.56
2018-01-12T03:15:32.672Z,5.56
2018-01-12T03:16:32.940Z,5.62
2018-01-12T03:17:32.595Z,5.62
2018-01-12T03:18:32.999Z,5.56
2018-01-12T03:19:32.494Z,5.56
2018-01-12T03:20:33.004Z,5.62
2018-01-12T03:21:32.451Z,5.62
2018-01-12T03:22:33.069Z,5.62
2018-01-12T03:23:32.274Z,5.62
2018-01-12T03:24:32.812Z,5.62
2018-01-12T03:25:32.232Z,5.62
2018-01-12T03:26:32.529Z,5.62
2018-01-12T03:27:33.024Z,5.62
2018-01-12T03:28:32.673Z,5.62
2018-01-12T03:29:32.179Z,5.56
2018-01-12T03:30:32.569Z,5.56
2018-01-12T03:31:32.911Z,5.56
2018-01-12T03:32:33.314Z,5.56
2018-01-12T03:33:32.718Z,5.56
2018-01-12T03:34:32.968Z,5.56
2018-01-12T03:35:32.388Z,5.56
2018-01-12T03:36:32.964Z,5.56
2018-01-12T03:37:32.247Z,5.56
2018-01-12T03:38:32.363Z,5.56
2018-01-12T03:39:32.835Z,5.56
2018-01-12T03:40:32.114Z,5.56
2018-01-12T03:41:32.564Z,5.56
2018-01-12T03:42:33.160Z,5.62
2018-01-12T03:43:32.349Z,5.56
2018-01-12T03:44:32.880Z,5.62
2018-01-12T03:45:32.106Z,5.56
2018-01-12T03:46:32.347Z,5.56
2018-01-12T03:47:31.694Z,5.56
2018-01-12T03:48:31.988Z,5.56
2018-01-12T03:49:32.313Z,5.56
2018-01-12T03:50:31.897Z,5.56
2018-01-12T03:51:32.452Z,5.62
2018-01-12T03:52:31.918Z,5.56
2018-01-12T03:53:32.306Z,5.62
2018-01-12T03:54:32.503Z,5.56
2018-01-12T03:55:31.944Z,5.56
2018-01-12T03:56:32.472Z,5.56
2018-01-12T03:57:31.825Z,5.5
2018-01-12T03:58:32.007Z,5.56
2018-01-12T03:59:32.321Z,5.5
2018-01-12T04:00:31.546Z,5.56
2018-01-12T04:01:32.077Z,5.56
2018-01-12T04:02:32.528Z,5.62
2018-01-12T04:03:31.948Z,5.56
2018-01-12T04:04:32.457Z,5.56
2018-01-12T04:05:32.014Z,5.5
2018-01-12T04:06:32.235Z,5.5
2018-01-12T04:07:32.606Z,5.5
2018-01-12T04:08:32.039Z,5.5
2018-01-12T04:09:32.271Z,5.5
2018-01-12T04:10:32.653Z,5.5
2018-01-12T04:11:32.723Z,5.5
2018-01-12T04:12:32.127Z,5.44
2018-01-12T04:13:32.626Z,5.5
2018-01-12T04:14:31.936Z,5.5
2018-01-12T04:15:32.378Z,5.5
2018-01-12T04:16:32.888Z,5.44
2018-01-12T04:17:33.160Z,5.44
2018-01-12T04:18:32.567Z,5.44
2018-01-12T04:19:32.852Z,5.44
2018-01-12T04:20:33.224Z,5.44
2018-01-12T04:21:32.548Z,5.44
2018-01-12T04:22:33.004Z,5.5
2018-01-12T04:23:32.407Z,5.44
2018-01-12T04:24:32.754Z,5.44
2018-01-12T04:25:32.983Z,5.5
2018-01-12T04:26:32.260Z,5.5
2018-01-12T04:27:32.447Z,5.5
2018-01-12T04:28:32.556Z,5.5
2018-01-12T04:29:33.048Z,5.5
2018-01-12T04:30:32.432Z,5.5
2018-01-12T04:31:32.667Z,5.44
2018-01-12T04:32:33.002Z,5.5
2018-01-12T04:33:33.225Z,5.5
2018-01-12T04:34:32.484Z,5.44
2018-01-12T04:35:32.569Z,5.5
2018-01-12T04:36:32.761Z,5.44
2018-01-12T04:37:32.994Z,5.44
2018-01-12T04:38:32.218Z,5.44
2018-01-12T04:39:32.481Z,5.44
2018-01-12T04:40:32.721Z,5.44
2018-01-12T04:41:33.021Z,5.44
2018-01-12T04:42:32.227Z,5.44
2018-01-12T04:43:32.428Z,5.44
2018-01-12T04:44:32.902Z,5.5
2018-01-12T04:45:33.273Z,5.44
2018-01-12T04:46:32.595Z,5.5
2018-01-12T04:47:32.958Z,5.44
2018-01-12T04:48:33.069Z,5.44
2018-01-12T04:49:32.475Z,5.44
2018-01-12T04:50:33.017Z,5.44
2018-01-12T04:51:32.562Z,5.44
2018-01-12T04:52:32.993Z,5.44
2018-01-12T04:53:32.506Z,5.37
2018-01-12T04:54:32.786Z,5.44
2018-01-12T04:55:33.401Z,5.44
2018-01-12T04:56:32.922Z,5.44
2018-01-12T04:57:33.502Z,5.44
2018-01-12T04:58:33.010Z,5.37
2018-01-12T04:59:32.471Z,5.44
2018-01-12T05:00:33.069Z,5.37
2018-01-12T05:01:32.545Z,5.44
2018-01-12T05:02:33.139Z,5.44
2018-01-12T05:03:32.703Z,5.44
2018-01-12T05:04:33.211Z,5.37
2018-01-12T05:05:32.967Z,5.37
2018-01-12T05:06:32.460Z,5.44
2018-01-12T05:07:32.978Z,5.37
2018-01-12T05:08:32.579Z,5.44
2018-01-12T05:09:33.551Z,5.37
2018-01-12T05:10:33.148Z,5.37
2018-01-12T05:11:32.716Z,5.31
2018-01-12T05:12:33.280Z,5.37
2018-01-12T05:13:32.817Z,5.31
2018-01-12T05:14:33.378Z,5.31
2018-01-12T05:15:32.908Z,5.31
2018-01-12T05:16:32.676Z,5.31
2018-01-12T05:17:33.134Z,5.31
2018-01-12T05:18:32.612Z,5.31
2018-01-12T05:19:33.327Z,5.31
2018-01-12T05:20:32.808Z,5.31
2018-01-12T05:21:33.246Z,5.37
2018-01-12T05:22:33.242Z,5.37
2018-01-12T05:23:32.632Z,5.31
2018-01-12T05:24:32.948Z,5.31
2018-01-12T05:25:33.351Z,5.25
2018-01-12T05:26:32.960Z,5.31
2018-01-12T05:27:33.268Z,5.25
2018-01-12T05:28:32.570Z,5.25
2018-01-12T05:29:32.856Z,5.25
2018-01-12T05:30:33.050Z,5.25
2018-01-12T05:31:33.446Z,5.19
2018-01-12T05:32:32.681Z,5.19
2018-01-12T05:33:32.969Z,5.25
2018-01-12T05:34:33.283Z,5.19
2018-01-12T05:35:32.613Z,5.25
2018-01-12T05:36:32.823Z,5.19
2018-01-12T05:37:33.340Z,5.19
2018-01-12T05:38:32.644Z,5.19
2018-01-12T05:39:33.153Z,5.19
2018-01-12T05:40:32.416Z,5.19
2018-01-12T05:41:32.784Z,5.19
2018-01-12T05:42:33.282Z,5.19
2018-01-12T05:43:32.669Z,5.19
2018-01-12T05:44:33.044Z,5.12
2018-01-12T05:45:33.285Z,5.19
2018-01-12T05:46:32.444Z,5.19
2018-01-12T05:47:33.113Z,5.19
2018-01-12T05:48:33.013Z,5.19
2018-01-12T05:49:33.313Z,5.19
2018-01-12T05:50:32.588Z,5.19
2018-01-12T05:51:32.812Z,5.19
2018-01-12T05:52:33.070Z,5.25
2018-01-12T05:53:33.472Z,5.19
2018-01-12T05:54:32.613Z,5.19
2018-01-12T05:55:32.899Z,5.19
2018-01-12T05:56:33.274Z,5.25
2018-01-12T05:57:32.764Z,5.25
2018-01-12T05:58:32.960Z,5.19
2018-01-12T05:59:33.286Z,5.19
2018-01-12T06:00:32.569Z,5.19
2018-01-12T06:01:32.997Z,5.19
2018-01-12T06:02:33.241Z,5.19
2018-01-12T06:03:33.569Z,5.25
2018-01-12T06:04:32.797Z,5.25
2018-01-12T06:05:33.070Z,5.25
2018-01-12T06:06:33.298Z,5.19
2018-01-12T06:07:32.512Z,5.25
2018-01-12T06:08:33.240Z,5.19
2018-01-12T06:09:32.730Z,5.19
2018-01-12T06:10:32.889Z,5.19
2018-01-12T06:11:33.071Z,5.19
2018-01-12T06:12:33.631Z,5.19
2018-01-12T06:13:33.087Z,5.12
2018-01-12T06:14:33.498Z,5.19
2018-01-12T06:15:32.643Z,5.12
2018-01-12T06:16:32.957Z,5.12
2018-01-12T06:17:32.511Z,5.12
2018-01-12T06:18:32.937Z,5.12
2018-01-12T06:19:32.257Z,5.12
2018-01-12T06:20:32.559Z,5.12
2018-01-12T06:21:32.812Z,5.12
2018-01-12T06:22:31.973Z,5.12
2018-01-12T06:23:32.333Z,5.19
2018-01-12T06:24:32.768Z,5.19
2018-01-12T06:25:32.199Z,5.25
2018-01-12T06:26:32.569Z,5.19
2018-01-12T06:27:32.724Z,5.25
2018-01-12T06:28:32.936Z,5.25
2018-01-12T06:29:32.055Z,5.25
2018-01-12T06:30:32.346Z,5.25
2018-01-12T06:31:32.889Z,5.19
2018-01-12T06:32:32.116Z,5.25
2018-01-12T06:33:32.461Z,5.25
2018-01-12T06:34:32.593Z,5.25
2018-01-12T06:35:33.008Z,5.19
2018-01-12T06:36:32.372Z,5.25
2018-01-12T06:37:32.460Z,5.25
2018-01-12T06:38:32.698Z,5.25
2018-01-12T06:39:32.749Z,5.25
2018-01-12T06:40:32.929Z,5.25
2018-01-12T06:41:32.308Z,5.25
2018-01-12T06:42:32.534Z,5.25
2018-01-12T06:43:32.873Z,5.25
2018-01-12T06:44:32.095Z,5.25
2018-01-12T06:45:32.270Z,5.25
2018-01-12T06:46:32.465Z,5.25
2018-01-12T06:47:33.250Z,5.25
2018-01-12T06:48:32.608Z,5.25
2018-01-12T06:49:32.069Z,5.25
2018-01-12T06:50:32.232Z,5.19
2018-01-12T06:51:32.410Z,5.19
2018-01-12T06:52:31.888Z,5.25
2018-01-12T06:53:32.372Z,5.25
2018-01-12T06:54:32.597Z,5.25
2018-01-12T06:55:31.773Z,5.25
2018-01-12T06:56:32.098Z,5.25
2018-01-12T06:57:32.236Z,5.25
2018-01-12T06:58:32.382Z,5.25
2018-01-12T06:59:32.839Z,5.25
2018-01-12T07:00:32.143Z,5.25
2018-01-12T07:01:32.354Z,5.25
2018-01-12T07:02:32.689Z,5.25
2018-01-12T07:03:32.188Z,5.31
2018-01-12T07:04:32.802Z,5.25
2018-01-12T07:05:32.312Z,5.31
2018-01-12T07:06:32.809Z,5.25
2018-01-12T07:07:32.231Z,5.25
2018-01-12T07:08:32.540Z,5.25
2018-01-12T07:09:31.873Z,5.25
2018-01-12T07:10:32.066Z,5.25
2018-01-12T07:11:32.355Z,5.31
2018-01-12T07:12:32.796Z,5.25
2018-01-12T07:13:32.053Z,5.31
2018-01-12T07:14:32.480Z,5.31
2018-01-12T07:15:32.768Z,5.25
2018-01-12T07:16:32.052Z,5.25
2018-01-12T07:17:32.758Z,5.19
2018-01-12T07:18:32.379Z,5.25
2018-01-12T07:19:32.872Z,5.25
2018-01-12T07:20:32.233Z,5.25
2018-01-12T07:21:32.653Z,5.19
2018-01-12T07:22:33.158Z,5.25
2018-01-12T07:23:32.830Z,5.25
2018-01-12T07:24:33.139Z,5.25
2018-01-12T07:25:32.541Z,5.25
2018-01-12T07:26:32.881Z,5.25
2018-01-12T07:27:33.054Z,5.25
2018-01-12T07:28:32.642Z,5.25
2018-01-12T07:29:33.083Z,5.25
2018-01-12T07:30:32.456Z,5.19
2018-01-12T07:31:32.617Z,5.25
2018-01-12T07:32:33.176Z,5.25
2018-01-12T07:33:32.589Z,5.25
2018-01-12T07:34:32.922Z,5.19
2018-01-12T07:35:32.315Z,5.25
2018-01-12T07:36:32.811Z,5.25
2018-01-12T07:37:33.056Z,5.25
2018-01-12T07:38:32.415Z,5.25
2018-01-12T07:39:32.854Z,5.25
2018-01-12T07:40:33.131Z,5.25
2018-01-12T07:41:32.434Z,5.19
2018-01-12T07:42:32.787Z,5.25
2018-01-12T07:43:33.092Z,5.19
2018-01-12T07:44:32.634Z,5.25
2018-01-12T07:45:32.870Z,5.25
2018-01-12T07:46:33.277Z,5.25
2018-01-12T07:47:32.669Z,5.25
2018-01-12T07:48:33.144Z,5.25
2018-01-12T07:49:32.604Z,5.25
2018-01-12T07:50:32.914Z,5.19
2018-01-12T07:51:32.234Z,5.25
2018-01-12T07:52:33.438Z,5.25
2018-01-12T07:53:32.614Z,5.25
2018-01-12T07:54:33.117Z,5.25
2018-01-12T07:55:32.651Z,5.25
2018-01-12T07:56:32.132Z,5.25
2018-01-12T07:57:32.060Z,5.25
2018-01-12T07:58:32.355Z,5.25
2018-01-12T07:59:32.664Z,5.25
2018-01-12T08:00:32.810Z,5.31
2018-01-12T08:01:32.134Z,5.31
2018-01-12T08:02:32.318Z,5.31
2018-01-12T08:03:32.589Z,5.31
2018-01-12T08:04:33.004Z,5.31
2018-01-12T08:05:32.174Z,5.31
2018-01-12T08:06:32.415Z,5.31
2018-01-12T08:07:32.570Z,5.31
2018-01-12T08:08:32.980Z,5.31
2018-01-12T08:09:32.534Z,5.31
2018-01-12T08:10:32.853Z,5.31
2018-01-12T08:11:32.847Z,5.31
2018-01-12T08:12:32.269Z,5.31
2018-01-12T08:13:32.663Z,5.31
2018-01-12T08:14:32.941Z,5.31
2018-01-12T08:15:32.236Z,5.25
2018-01-12T08:16:32.892Z,5.31
2018-01-12T08:17:32.159Z,5.25
2018-01-12T08:18:32.473Z,5.31
2018-01-12T08:19:32.786Z,5.31
2018-01-12T08:20:32.415Z,5.31
2018-01-12T08:21:32.861Z,5.25
2018-01-12T08:22:32.209Z,5.31
2018-01-12T08:23:32.551Z,5.31
2018-01-12T08:24:31.717Z,5.31
2018-01-12T08:25:32.022Z,5.31
2018-01-12T08:26:32.343Z,5.31
2018-01-12T08:27:32.878Z,5.31
2018-01-12T08:28:32.264Z,5.31
2018-01-12T08:29:32.374Z,5.31
2018-01-12T08:30:32.699Z,5.31
2018-01-12T08:31:32.146Z,5.31
2018-01-12T08:32:32.528Z,5.31
2018-01-12T08:33:32.080Z,5.37
2018-01-12T08:34:32.473Z,5.37
2018-01-12T08:35:32.768Z,5.37
2018-01-12T08:36:32.292Z,5.37
2018-01-12T08:37:32.506Z,5.44
2018-01-12T08:38:32.928Z,5.37
2018-01-12T08:39:32.359Z,5.44
2018-01-12T08:40:32.689Z,5.37
2018-01-12T08:41:31.877Z,5.37
2018-01-12T08:42:31.967Z,5.44
2018-01-12T08:43:32.222Z,5.44
2018-01-12T08:44:32.462Z,5.44
2018-01-12T08:45:32.661Z,5.37
2018-01-12T08:46:31.865Z,5.44
2018-01-12T08:47:32.161Z,5.37
2018-01-12T08:48:32.501Z,5.44
2018-01-12T08:49:33.457Z,5.44
2018-01-12T08:50:33.030Z,5.44
2018-01-12T08:51:32.494Z,5.44
2018-01-12T08:52:32.078Z,5.44
2018-01-12T08:53:32.323Z,5.44
2018-01-12T08:54:32.546Z,5.44
2018-01-12T08:55:31.962Z,5.5
2018-01-12T08:56:32.182Z,5.5
2018-01-12T08:57:32.438Z,5.5
2018-01-12T08:58:32.865Z,5.5
2018-01-12T08:59:32.193Z,5.5
2018-01-12T09:00:32.676Z,5.5
2018-01-12T09:01:32.143Z,5.44
2018-01-12T09:02:32.361Z,5.44
2018-01-12T09:03:32.873Z,5.44
2018-01-12T09:04:32.080Z,5.5
2018-01-12T09:05:32.502Z,5.44
2018-01-12T09:06:33.790Z,5.44
2018-01-12T09:07:32.063Z,5.5
2018-01-12T09:08:32.454Z,5.5
2018-01-12T09:09:32.626Z,5.5
2018-01-12T09:10:32.022Z,5.5
2018-01-12T09:11:32.167Z,5.5
2018-01-12T09:12:32.328Z,5.5
2018-01-12T09:13:32.616Z,5.56
2018-01-12T09:14:32.136Z,5.5
2018-01-12T09:15:32.320Z,5.56
2018-01-12T09:16:32.575Z,5.56
2018-01-12T09:17:32.911Z,5.56
2018-01-12T09:18:32.191Z,5.56
2018-01-12T09:19:32.602Z,5.56
2018-01-12T09:20:31.987Z,5.62
2018-01-12T09:21:32.445Z,5.62
2018-01-12T09:22:32.730Z,5.62
2018-01-12T09:23:32.973Z,5.62
2018-01-12T09:24:33.128Z,5.62
2018-01-12T09:25:32.551Z,5.62
2018-01-12T09:26:32.689Z,5.62
2018-01-12T09:27:32.967Z,5.62
2018-01-12T09:28:33.279Z,5.62
2018-01-12T09:29:32.541Z,5.69
2018-01-12T09:30:32.899Z,5.75
2018-01-12T09:31:33.326Z,5.75
2018-01-12T09:32:32.717Z,5.75
2018-01-12T09:33:33.005Z,5.75
2018-01-12T09:34:33.289Z,5.75
2018-01-12T09:35:32.768Z,5.75
2018-01-12T09:36:32.996Z,5.75
2018-01-12T09:37:33.369Z,5.81
2018-01-12T09:38:32.740Z,5.87
2018-01-12T09:39:32.940Z,5.87
2018-01-12T09:40:33.106Z,5.87
2018-01-12T09:41:33.483Z,5.81
2018-01-12T09:42:32.784Z,5.87
2018-01-12T09:43:33.073Z,5.87
2018-01-12T09:44:33.458Z,5.81
2018-01-12T09:45:32.999Z,5.94
2018-01-12T09:46:32.481Z,5.87
2018-01-12T09:47:32.674Z,5.94
2018-01-12T09:48:32.819Z,6
2018-01-12T09:49:33.215Z,6
2018-01-12T09:50:32.621Z,6.06
2018-01-12T09:51:33.202Z,6.06
2018-01-12T09:52:32.530Z,6.12
2018-01-12T09:53:32.889Z,6
2018-01-12T09:54:32.353Z,6
2018-01-12T09:55:32.893Z,5.94
2018-01-12T09:56:32.495Z,6
2018-01-12T09:57:32.781Z,6
2018-01-12T09:58:32.056Z,5.94
2018-01-12T09:59:32.361Z,6
2018-01-12T10:00:32.851Z,5.94
2018-01-12T10:01:34.984Z,5.94
2018-01-12T10:02:32.917Z,5.94
2018-01-12T10:03:34.140Z,5.94
2018-01-12T10:04:32.281Z,5.94
2018-01-12T10:05:35.567Z,5.94
2018-01-12T10:06:34.068Z,5.94
2018-01-12T10:07:33.396Z,5.94
2018-01-12T10:08:32.088Z,6
2018-01-12T10:09:33.161Z,5.94
2018-01-12T10:10:34.428Z,6
2018-01-12T10:11:34.160Z,5.94
2018-01-12T10:12:34.421Z,6
2018-01-12T10:13:37.281Z,6
2018-01-12T10:14:35.436Z,6
2018-01-12T10:15:32.545Z,6
2018-01-12T10:16:33.003Z,6
2018-01-12T10:17:32.712Z,6.06
2018-01-12T10:18:32.114Z,6
2018-01-12T10:19:32.370Z,6.06
2018-01-12T10:20:33.434Z,6.06
2018-01-12T10:21:33.139Z,6.06
2018-01-12T10:22:32.720Z,6.06
2018-01-12T10:23:33.411Z,6.06
2018-01-12T10:24:32.643Z,6.06
2018-01-12T10:25:33.666Z,6.06
2018-01-12T10:26:33.790Z,6.06
2018-01-12T10:27:33.564Z,6.06
2018-01-12T10:28:32.912Z,6.06
2018-01-12T10:29:33.949Z,6.06
2018-01-12T10:30:33.508Z,6.06
2018-01-12T10:31:33.605Z,6.06
2018-01-12T10:32:32.894Z,6.06
2018-01-12T10:33:33.184Z,6
2018-01-12T10:34:33.625Z,6.06
2018-01-12T10:35:32.961Z,6
2018-01-12T10:36:33.240Z,6.06
2018-01-12T10:37:33.350Z,6.06
2018-01-12T10:38:32.604Z,6.06
2018-01-12T10:39:33.022Z,6.06
2018-01-12T10:40:33.562Z,6.06
2018-01-12T10:41:32.974Z,6.06
2018-01-12T10:42:33.449Z,6
2018-01-12T10:43:32.878Z,6.06
2018-01-12T10:44:33.293Z,6.06
2018-01-12T10:45:32.514Z,6.12
2018-01-12T10:46:32.878Z,6.12
2018-01-12T10:47:33.135Z,6.12
2018-01-12T10:48:33.642Z,6.12
2018-01-12T10:49:33.251Z,6.12
2018-01-12T10:50:32.733Z,6.19
2018-01-12T10:51:33.116Z,6.12
2018-01-12T10:52:33.213Z,6.19
2018-01-12T10:53:32.329Z,6.19
2018-01-12T10:54:32.676Z,6.25
2018-01-12T10:55:33.051Z,6.19
2018-01-12T10:56:33.305Z,6.19
2018-01-12T10:57:32.691Z,6.19
2018-01-12T10:58:32.950Z,6.19
2018-01-12T10:59:33.299Z,6.25
2018-01-12T11:00:32.723Z,6.25
2018-01-12T11:01:32.993Z,6.25
2018-01-12T11:02:33.291Z,6.25
2018-01-12T11:03:32.583Z,6.31
2018-01-12T11:04:32.738Z,6.25
2018-01-12T11:05:33.022Z,6.31
2018-01-12T11:06:33.311Z,6.31
2018-01-12T11:07:32.624Z,6.31
2018-01-12T11:08:32.772Z,6.31
2018-01-12T11:09:32.831Z,6.31
2018-01-12T11:10:33.046Z,6.37
2018-01-12T11:11:33.025Z,6.37
2018-01-12T11:12:33.367Z,6.37
2018-01-12T11:13:32.793Z,6.37
2018-01-12T11:14:33.080Z,6.37
2018-01-12T11:15:33.414Z,6.37
2018-01-12T11:16:32.753Z,6.37
2018-01-12T11:17:32.886Z,6.44
2018-01-12T11:18:33.307Z,6.44
2018-01-12T11:19:32.627Z,6.44
2018-01-12T11:20:32.842Z,6.44
2018-01-12T11:21:32.937Z,6.44
2018-01-12T11:22:33.287Z,6.44
2018-01-12T11:23:33.210Z,6.5
2018-01-12T11:24:33.332Z,6.5
2018-01-12T11:25:32.544Z,6.5
2018-01-12T11:26:32.898Z,6.56
2018-01-12T11:27:33.192Z,6.56
2018-01-12T11:28:33.425Z,6.62
2018-01-12T11:29:32.547Z,6.56
2018-01-12T11:30:32.759Z,6.56
2018-01-12T11:31:33.421Z,6.62
2018-01-12T11:32:32.862Z,6.56
2018-01-12T11:33:33.223Z,6.56
2018-01-12T11:34:33.310Z,6.56
2018-01-12T11:35:32.550Z,6.56
2018-01-12T11:36:32.950Z,6.56
2018-01-12T11:37:33.387Z,6.56
2018-01-12T11:38:32.612Z,6.56
2018-01-12T11:39:32.810Z,6.62
2018-01-12T11:40:32.917Z,6.56
2018-01-12T11:41:33.027Z,6.56
2018-01-12T11:42:33.220Z,6.56
2018-01-12T11:43:32.772Z,6.56
2018-01-12T11:44:33.072Z,6.56
2018-01-12T11:45:33.262Z,6.56
2018-01-12T11:46:32.422Z,6.56
2018-01-12T11:47:32.574Z,6.56
2018-01-12T11:48:33.015Z,6.56
2018-01-12T11:49:33.119Z,6.56
2018-01-12T11:50:33.338Z,6.56
2018-01-12T11:51:32.622Z,6.56
2018-01-12T11:52:32.896Z,6.56
2018-01-12T11:53:33.313Z,6.5
2018-01-12T11:54:32.758Z,6.5
2018-01-12T11:55:32.873Z,6.5
2018-01-12T11:56:33.169Z,6.5
2018-01-12T11:57:32.444Z,6.5
2018-01-12T11:58:32.732Z,6.5
2018-01-12T11:59:32.994Z,6.56
2018-01-12T12:00:32.158Z,6.56
2018-01-12T12:01:32.371Z,6.56
2018-01-12T12:02:32.587Z,6.56
2018-01-12T12:03:33.146Z,6.62
2018-01-12T12:04:32.594Z,6.69
2018-01-12T12:05:33.060Z,6.69
2018-01-12T12:06:32.420Z,6.75
2018-01-12T12:07:32.692Z,6.75
2018-01-12T12:08:33.430Z,6.81
2018-01-12T12:09:32.664Z,6.87
2018-01-12T12:10:32.917Z,6.94
2018-01-12T12:11:33.076Z,6.94
2018-01-12T12:12:32.458Z,7.06
2018-01-12T12:13:32.868Z,7
2018-01-12T12:14:33.231Z,7.06
2018-01-12T12:15:32.793Z,7.06
2018-01-12T12:16:33.295Z,7.12
2018-01-12T12:17:33.032Z,7.19
2018-01-12T12:18:32.998Z,7.19
2018-01-12T12:19:32.392Z,7.19
2018-01-12T12:20:32.845Z,7.25
2018-01-12T12:21:34.681Z,7.25
2018-01-12T12:22:32.589Z,7.25
2018-01-12T12:23:32.933Z,7.31
2018-01-12T12:24:36.610Z,7.31
2018-01-12T12:25:34.470Z,7.31
2018-01-12T12:26:33.447Z,7.25
2018-01-12T12:27:32.876Z,7.25
2018-01-12T12:28:33.297Z,7.25
2018-01-12T12:29:33.253Z,7.19
2018-01-12T12:30:32.598Z,7.19
2018-01-12T12:31:33.127Z,7.12
2018-01-12T12:33:34.135Z,7.12
2018-01-12T12:34:33.430Z,7.12
2018-01-12T12:35:33.665Z,7.12
2018-01-12T12:36:33.231Z,7.12
2018-01-12T12:37:32.596Z,7.19
2018-01-12T12:38:33.294Z,7.12
2018-01-12T12:39:33.054Z,7.19
2018-01-12T12:40:33.452Z,7.12
2018-01-12T12:41:34.204Z,7.12
2018-01-12T12:42:35.641Z,7.12
2018-01-12T12:43:33.060Z,7.19
2018-01-12T12:44:33.401Z,7.19
2018-01-12T12:45:33.034Z,7.19
2018-01-12T12:46:33.827Z,7.19
2018-01-12T12:47:32.776Z,7.12
2018-01-12T12:48:33.150Z,7.12
2018-01-12T12:49:34.016Z,7.12
2018-01-12T12:50:33.356Z,7.06
2018-01-12T12:51:32.670Z,7.06
2018-01-12T12:52:33.040Z,7.06
2018-01-12T12:53:33.483Z,7.06
2018-01-12T12:54:32.947Z,7
2018-01-12T12:55:33.451Z,7.06
2018-01-12T12:56:32.759Z,7
2018-01-12T12:57:33.031Z,7.06
2018-01-12T12:58:32.730Z,7
2018-01-12T12:59:34.117Z,7
2018-01-12T13:00:32.535Z,7
2018-01-12T13:01:33.007Z,7
2018-01-12T13:02:33.941Z,7
2018-01-12T13:03:33.170Z,7
2018-01-12T13:04:32.535Z,7
2018-01-12T13:05:32.902Z,7
2018-01-12T13:06:33.211Z,7.06
2018-01-12T13:07:32.468Z,7
2018-01-12T13:08:32.861Z,7
2018-01-12T13:09:44.076Z,7
2018-01-12T13:10:35.475Z,7
2018-01-12T13:11:38.405Z,7.06
2018-01-12T13:12:36.677Z,7
2018-01-12T13:13:35.838Z,7.06
2018-01-12T13:14:35.576Z,7.06
2018-01-12T13:15:32.953Z,7.06
2018-01-12T13:16:33.312Z,7.06
2018-01-12T13:17:32.609Z,7.06
2018-01-12T13:18:35.207Z,7.06
2018-01-12T13:19:32.735Z,7
2018-01-12T13:20:33.747Z,7
2018-01-12T13:21:33.049Z,7.06
2018-01-12T13:22:32.430Z,7.06
2018-01-12T13:23:32.527Z,7.06
2018-01-12T13:24:32.885Z,7
2018-01-12T13:25:33.462Z,7
2018-01-12T13:26:33.281Z,7